sensor_id;sensor_type;location;lat;lon;timestamp;temperature;humidity
11379;DHT22;5744;59.392;16.748;2022-12-17T04:58:07;-6.10;99.90
11379;DHT22;5744;59.392;16.748;2022-12-17T05:00:49;-6.10;99.90
11379;DHT22;5744;59.392;16.748;2022-12-17T05:03:30;-6.10;99.90
11379;DHT22;5744;59.392;16.748;2022-12-17T05:06:11;-6.10;99.90
11379;DHT22;5744;59.392;16.748;2022-12-17T05:08:52;-6.10;99.90
11379;DHT22;5744;59.392;16.748;2022-12-17T05:11:33;-6.10;99.90
11379;DHT22;5744;59.392;16.748;2022-12-17T05:14:19;-6.10;99.90
11379;DHT22;5744;59.392;16.748;2022-12-17T05:17:00;-6.10;99.90
11379;DHT22;5744;59.392;16.748;2022-12-17T05:19:41;-6.20;99.90
11379;DHT22;5744;59.392;16.748;2022-12-17T05:22:22;-6.20;99.90
11379;DHT22;5744;59.392;16.748;2022-12-17T05:25:03;-6.20;99.90
11379;DHT22;5744;59.392;16.748;2022-12-17T05:27:44;-6.30;99.90
11379;DHT22;5744;59.392;16.748;2022-12-17T05:30:28;-6.30;99.90
11379;DHT22;5744;59.392;16.748;2022-12-17T05:33:09;-6.30;99.90
11379;DHT22;5744;59.392;16.748;2022-12-17T05:35:50;-6.40;99.90
11379;DHT22;5744;59.392;16.748;2022-12-17T05:38:31;-6.50;99.90
11379;DHT22;5744;59.392;16.748;2022-12-17T05:41:24;-6.50;99.90
11379;DHT22;5744;59.392;16.748;2022-12-17T05:44:04;-6.50;99.90
11379;DHT22;5744;59.392;16.748;2022-12-17T05:46:48;-6.60;99.90
11379;DHT22;5744;59.392;16.748;2022-12-17T05:49:29;-6.60;99.90
11379;DHT22;5744;59.392;16.748;2022-12-17T05:52:10;-6.70;99.90
11379;DHT22;5744;59.392;16.748;2022-12-17T05:54:51;-6.70;99.90
11379;DHT22;5744;59.392;16.748;2022-12-17T05:57:31;-6.80;99.90
11379;DHT22;5744;59.392;16.748;2022-12-17T06:00:13;-6.80;99.90
11379;DHT22;5744;59.392;16.748;2022-12-17T06:03:00;-6.80;99.90
11379;DHT22;5744;59.392;16.748;2022-12-17T06:05:41;-6.80;99.90
11379;DHT22;5744;59.392;16.748;2022-12-17T06:08:22;-6.80;99.90
11379;DHT22;5744;59.392;16.748;2022-12-17T06:11:03;-6.90;99.90
11379;DHT22;5744;59.392;16.748;2022-12-17T06:13:45;-7.10;99.90
11379;DHT22;5744;59.392;16.748;2022-12-17T06:16:26;-7.20;99.90
11379;DHT22;5744;59.392;16.748;2022-12-17T06:19:10;-7.30;99.90
11379;DHT22;5744;59.392;16.748;2022-12-17T06:21:51;-7.30;99.90
11379;DHT22;5744;59.392;16.748;2022-12-17T06:24:31;-7.30;99.90
11379;DHT22;5744;59.392;16.748;2022-12-17T06:27:12;-7.30;99.90
11379;DHT22;5744;59.392;16.748;2022-12-17T06:29:53;-7.20;99.90
11379;DHT22;5744;59.392;16.748;2022-12-17T06:32:34;-7.20;99.90
11379;DHT22;5744;59.392;16.748;2022-12-17T06:35:18;-7.20;99.90
11379;DHT22;5744;59.392;16.748;2022-12-17T06:37:59;-7.20;99.90
11379;DHT22;5744;59.392;16.748;2022-12-17T06:40:40;-7.20;99.90
11379;DHT22;5744;59.392;16.748;2022-12-17T06:43:21;-7.20;99.90
11379;DHT22;5744;59.392;16.748;2022-12-17T06:46:02;-7.20;99.90
11379;DHT22;5744;59.392;16.748;2022-12-17T06:48:43;-7.20;99.90
11379;DHT22;5744;59.392;16.748;2022-12-17T06:51:26;-7.30;99.90
11379;DHT22;5744;59.392;16.748;2022-12-17T06:54:07;-7.00;99.90
11379;DHT22;5744;59.392;16.748;2022-12-17T06:56:48;-7.20;99.90
11379;DHT22;5744;59.392;16.748;2022-12-17T06:59:29;-7.20;99.90
11379;DHT22;5744;59.392;16.748;2022-12-17T07:02:10;-7.20;99.90
11379;DHT22;5744;59.392;16.748;2022-12-17T07:04:51;-7.20;99.90
11379;DHT22;5744;59.392;16.748;2022-12-17T07:07:34;-7.30;99.90
11379;DHT22;5744;59.392;16.748;2022-12-17T07:10:16;-7.20;99.90
11379;DHT22;5744;59.392;16.748;2022-12-17T07:13:02;-7.30;99.90
11379;DHT22;5744;59.392;16.748;2022-12-17T07:15:43;-7.30;99.90
11379;DHT22;5744;59.392;16.748;2022-12-17T07:18:24;-7.20;99.90
11379;DHT22;5744;59.392;16.748;2022-12-17T07:21:05;-7.20;99.90
11379;DHT22;5744;59.392;16.748;2022-12-17T07:23:48;-7.00;99.90
11379;DHT22;5744;59.392;16.748;2022-12-17T07:26:29;-7.00;99.90
11379;DHT22;5744;59.392;16.748;2022-12-17T07:29:10;-7.00;99.90
11379;DHT22;5744;59.392;16.748;2022-12-17T07:31:51;-6.90;99.90
11379;DHT22;5744;59.392;16.748;2022-12-17T07:34:32;-7.00;99.90
11379;DHT22;5744;59.392;16.748;2022-12-17T07:37:13;-6.90;99.90
11379;DHT22;5744;59.392;16.748;2022-12-17T07:39:57;-6.90;99.90
11379;DHT22;5744;59.392;16.748;2022-12-17T07:42:37;-6.80;99.90
11379;DHT22;5744;59.392;16.748;2022-12-17T07:45:19;-6.70;99.90
11379;DHT22;5744;59.392;16.748;2022-12-17T13:55:34;-2.40;99.90
11379;DHT22;5744;59.392;16.748;2022-12-17T13:58:03;-2.40;99.90
11379;DHT22;5744;59.392;16.748;2022-12-17T14:00:31;-2.20;99.90
11379;DHT22;5744;59.392;16.748;2022-12-17T14:03:08;-2.20;99.90
11379;DHT22;5744;59.392;16.748;2022-12-17T14:05:37;-2.20;99.90
11379;DHT22;5744;59.392;16.748;2022-12-17T14:08:06;-2.10;99.90
11379;DHT22;5744;59.392;16.748;2022-12-17T14:10:41;-2.10;99.90
11379;DHT22;5744;59.392;16.748;2022-12-17T14:13:12;-2.10;99.90
11379;DHT22;5744;59.392;16.748;2022-12-17T14:15:38;-2.10;99.90
11379;DHT22;5744;59.392;16.748;2022-12-17T14:18:12;-2.10;99.90
11379;DHT22;5744;59.392;16.748;2022-12-17T14:20:41;-2.10;99.90
11379;DHT22;5744;59.392;16.748;2022-12-17T14:23:11;-2.10;99.90
11379;DHT22;5744;59.392;16.748;2022-12-17T14:25:44;-2.10;99.90
11379;DHT22;5744;59.392;16.748;2022-12-17T14:28:20;-2.10;99.90
11379;DHT22;5744;59.392;16.748;2022-12-17T14:30:49;-2.20;99.90
11379;DHT22;5744;59.392;16.748;2022-12-17T14:33:28;-2.20;99.90
11379;DHT22;5744;59.392;16.748;2022-12-17T14:35:58;-2.20;99.90
11379;DHT22;5744;59.392;16.748;2022-12-17T14:38:27;-2.20;99.90
11379;DHT22;5744;59.392;16.748;2022-12-17T14:41:02;-2.20;99.90
11379;DHT22;5744;59.392;16.748;2022-12-17T14:43:56;-2.20;99.90
11379;DHT22;5744;59.392;16.748;2022-12-17T14:46:25;-2.20;99.90
11379;DHT22;5744;59.392;16.748;2022-12-17T14:48:54;-2.20;99.90
11379;DHT22;5744;59.392;16.748;2022-12-17T14:51:31;-2.20;99.90
11379;DHT22;5744;59.392;16.748;2022-12-17T14:56:53;-2.30;99.90
11379;DHT22;5744;59.392;16.748;2022-12-17T14:59:23;-2.30;99.90
11379;DHT22;5744;59.392;16.748;2022-12-17T15:01:52;-2.30;99.90
11379;DHT22;5744;59.392;16.748;2022-12-17T15:04:21;-2.40;99.90
11379;DHT22;5744;59.392;16.748;2022-12-17T15:06:51;-2.50;99.90
11379;DHT22;5744;59.392;16.748;2022-12-17T15:09:21;-2.50;99.90
11379;DHT22;5744;59.392;16.748;2022-12-17T15:11:49;-2.50;99.90
11379;DHT22;5744;59.392;16.748;2022-12-17T15:14:20;-2.50;99.90
11379;DHT22;5744;59.392;16.748;2022-12-17T15:16:49;-2.50;99.90
11379;DHT22;5744;59.392;16.748;2022-12-17T15:19:17;-2.40;99.90
11379;DHT22;5744;59.392;16.748;2022-12-17T15:21:46;-2.40;99.90
11379;DHT22;5744;59.392;16.748;2022-12-17T15:24:16;-2.30;99.90
11379;DHT22;5744;59.392;16.748;2022-12-17T15:26:46;-2.30;99.90
11379;DHT22;5744;59.392;16.748;2022-12-17T15:29:14;-2.20;99.90
11379;DHT22;5744;59.392;16.748;2022-12-17T15:31:45;-2.30;99.90
11379;DHT22;5744;59.392;16.748;2022-12-17T15:34:14;-2.20;99.90
11379;DHT22;5744;59.392;16.748;2022-12-17T15:36:43;-2.10;99.90
11379;DHT22;5744;59.392;16.748;2022-12-17T15:39:11;-2.00;99.90
11379;DHT22;5744;59.392;16.748;2022-12-17T15:41:40;-2.00;99.90
11379;DHT22;5744;59.392;16.748;2022-12-17T15:44:21;-2.00;99.90
11379;DHT22;5744;59.392;16.748;2022-12-17T15:46:52;-2.00;99.90
11379;DHT22;5744;59.392;16.748;2022-12-17T15:49:20;-2.00;99.90
11379;DHT22;5744;59.392;16.748;2022-12-17T15:51:49;-2.00;99.90
11379;DHT22;5744;59.392;16.748;2022-12-17T15:54:17;-1.90;99.90
11379;DHT22;5744;59.392;16.748;2022-12-17T15:56:50;-1.90;99.90
11379;DHT22;5744;59.392;16.748;2022-12-17T15:59:18;-1.90;99.90
11379;DHT22;5744;59.392;16.748;2022-12-17T16:01:47;-1.80;99.90
11379;DHT22;5744;59.392;16.748;2022-12-17T16:04:18;-1.90;99.90
11379;DHT22;5744;59.392;16.748;2022-12-17T16:06:47;-1.80;99.90
11379;DHT22;5744;59.392;16.748;2022-12-17T16:09:15;-1.80;99.90
11379;DHT22;5744;59.392;16.748;2022-12-17T16:11:48;-1.90;99.90
11379;DHT22;5744;59.392;16.748;2022-12-17T16:14:19;-1.90;99.90
11379;DHT22;5744;59.392;16.748;2022-12-17T16:16:48;-1.80;99.90
11379;DHT22;5744;59.392;16.748;2022-12-17T16:19:19;-1.90;99.90
11379;DHT22;5744;59.392;16.748;2022-12-17T16:21:48;-1.90;99.90
11379;DHT22;5744;59.392;16.748;2022-12-17T16:24:16;-1.80;99.90
11379;DHT22;5744;59.392;16.748;2022-12-17T16:26:45;-1.80;99.90
11379;DHT22;5744;59.392;16.748;2022-12-17T16:29:13;-1.80;99.90
11379;DHT22;5744;59.392;16.748;2022-12-17T16:31:42;-1.80;99.90
11379;DHT22;5744;59.392;16.748;2022-12-17T16:34:11;-1.80;99.90
11379;DHT22;5744;59.392;16.748;2022-12-17T16:36:42;-1.80;99.90
11379;DHT22;5744;59.392;16.748;2022-12-17T16:39:13;-1.80;99.90
11379;DHT22;5744;59.392;16.748;2022-12-17T16:41:42;-1.70;99.90
11379;DHT22;5744;59.392;16.748;2022-12-17T16:44:11;-1.70;99.90
11379;DHT22;5744;59.392;16.748;2022-12-17T16:46:40;-1.70;99.90
11379;DHT22;5744;59.392;16.748;2022-12-17T16:49:11;-1.70;99.90
11379;DHT22;5744;59.392;16.748;2022-12-17T16:51:43;-1.70;99.90
11379;DHT22;5744;59.392;16.748;2022-12-17T16:54:12;-1.70;99.90
11379;DHT22;5744;59.392;16.748;2022-12-17T16:56:42;-1.70;99.90
11379;DHT22;5744;59.392;16.748;2022-12-17T16:59:12;-1.60;99.90
11379;DHT22;5744;59.392;16.748;2022-12-17T17:01:41;-1.60;99.90
11379;DHT22;5744;59.392;16.748;2022-12-17T17:04:11;-1.60;99.90
11379;DHT22;5744;59.392;16.748;2022-12-17T17:06:43;-1.60;99.90
11379;DHT22;5744;59.392;16.748;2022-12-17T17:09:12;-1.50;99.90
11379;DHT22;5744;59.392;16.748;2022-12-17T17:11:41;-1.60;99.90
11379;DHT22;5744;59.392;16.748;2022-12-17T17:14:10;-1.50;99.90
11379;DHT22;5744;59.392;16.748;2022-12-17T17:16:38;-1.50;99.90
11379;DHT22;5744;59.392;16.748;2022-12-17T17:19:07;-1.50;99.90
11379;DHT22;5744;59.392;16.748;2022-12-17T17:21:35;-1.50;99.90
11379;DHT22;5744;59.392;16.748;2022-12-17T17:24:09;-1.50;99.90
11379;DHT22;5744;59.392;16.748;2022-12-17T17:26:39;-1.40;99.90
11379;DHT22;5744;59.392;16.748;2022-12-17T17:29:07;-1.40;99.90
11379;DHT22;5744;59.392;16.748;2022-12-17T17:31:36;-1.40;99.90
11379;DHT22;5744;59.392;16.748;2022-12-17T17:34:07;-1.30;99.90
11379;DHT22;5744;59.392;16.748;2022-12-17T17:36:36;-1.30;99.90
11379;DHT22;5744;59.392;16.748;2022-12-17T17:39:05;-1.20;99.90
11379;DHT22;5744;59.392;16.748;2022-12-17T17:41:36;-1.20;99.90
11379;DHT22;5744;59.392;16.748;2022-12-17T17:44:05;-1.20;99.90
11379;DHT22;5744;59.392;16.748;2022-12-17T17:46:34;-1.30;99.90
11379;DHT22;5744;59.392;16.748;2022-12-17T17:49:05;-1.20;99.90
11379;DHT22;5744;59.392;16.748;2022-12-17T17:51:34;-1.10;99.90
11379;DHT22;5744;59.392;16.748;2022-12-17T17:54:03;-1.10;99.90
11379;DHT22;5744;59.392;16.748;2022-12-17T17:56:33;-1.10;99.90
11379;DHT22;5744;59.392;16.748;2022-12-17T17:59:05;-1.00;99.90
11379;DHT22;5744;59.392;16.748;2022-12-17T18:01:35;-1.00;99.90
11379;DHT22;5744;59.392;16.748;2022-12-17T18:04:04;-1.00;99.90
11379;DHT22;5744;59.392;16.748;2022-12-17T18:06:35;-0.90;99.90
11379;DHT22;5744;59.392;16.748;2022-12-17T18:09:03;-0.90;99.90
11379;DHT22;5744;59.392;16.748;2022-12-17T18:11:32;-0.90;99.90
11379;DHT22;5744;59.392;16.748;2022-12-17T18:14:04;-0.80;99.90
11379;DHT22;5744;59.392;16.748;2022-12-17T18:16:31;-0.70;99.90
11379;DHT22;5744;59.392;16.748;2022-12-17T18:19:01;-0.70;99.90
11379;DHT22;5744;59.392;16.748;2022-12-17T18:21:30;-0.70;99.90
11379;DHT22;5744;59.392;16.748;2022-12-17T18:24:00;-0.60;99.90
11379;DHT22;5744;59.392;16.748;2022-12-17T18:26:30;-0.60;99.90
11379;DHT22;5744;59.392;16.748;2022-12-17T18:29:00;-0.50;99.90
11379;DHT22;5744;59.392;16.748;2022-12-17T18:31:31;-0.50;99.90
11379;DHT22;5744;59.392;16.748;2022-12-17T18:34:00;-0.40;99.90
11379;DHT22;5744;59.392;16.748;2022-12-17T18:36:30;-0.40;99.90
11379;DHT22;5744;59.392;16.748;2022-12-17T18:38:59;-0.40;99.90
11379;DHT22;5744;59.392;16.748;2022-12-17T18:41:28;-0.30;99.90
11379;DHT22;5744;59.392;16.748;2022-12-17T18:44:09;-0.30;99.90
11379;DHT22;5744;59.392;16.748;2022-12-17T18:46:41;-0.20;99.90
11379;DHT22;5744;59.392;16.748;2022-12-17T18:49:11;-0.20;99.90
11379;DHT22;5744;59.392;16.748;2022-12-17T18:51:41;-0.10;99.90
11379;DHT22;5744;59.392;16.748;2022-12-17T18:54:11;-0.10;99.90
11379;DHT22;5744;59.392;16.748;2022-12-17T18:56:40;-0.10;99.90
11379;DHT22;5744;59.392;16.748;2022-12-17T18:59:09;-0.10;99.90
11379;DHT22;5744;59.392;16.748;2022-12-17T19:01:42;0.00;99.90
11379;DHT22;5744;59.392;16.748;2022-12-17T19:04:13;0.00;99.90
11379;DHT22;5744;59.392;16.748;2022-12-17T19:06:42;0.10;99.90
11379;DHT22;5744;59.392;16.748;2022-12-17T19:09:14;0.10;99.90
11379;DHT22;5744;59.392;16.748;2022-12-17T19:11:43;0.10;99.90
11379;DHT22;5744;59.392;16.748;2022-12-17T19:14:12;0.20;99.90
11379;DHT22;5744;59.392;16.748;2022-12-17T19:16:44;0.20;99.90
11379;DHT22;5744;59.392;16.748;2022-12-17T19:19:12;0.30;99.90
11379;DHT22;5744;59.392;16.748;2022-12-17T19:21:41;0.30;99.90
11379;DHT22;5744;59.392;16.748;2022-12-17T19:24:10;0.30;99.90
11379;DHT22;5744;59.392;16.748;2022-12-17T19:26:40;0.30;99.90
11379;DHT22;5744;59.392;16.748;2022-12-17T19:29:09;0.40;99.90
11379;DHT22;5744;59.392;16.748;2022-12-17T19:31:38;0.40;99.90
11379;DHT22;5744;59.392;16.748;2022-12-17T19:34:11;0.50;99.90
11379;DHT22;5744;59.392;16.748;2022-12-17T19:36:40;0.50;99.90
11379;DHT22;5744;59.392;16.748;2022-12-17T19:39:10;0.50;99.90
11379;DHT22;5744;59.392;16.748;2022-12-17T19:41:39;0.60;99.90
11379;DHT22;5744;59.392;16.748;2022-12-17T19:44:10;0.60;99.90
11379;DHT22;5744;59.392;16.748;2022-12-17T19:46:38;0.70;99.90
11379;DHT22;5744;59.392;16.748;2022-12-17T19:49:15;0.70;99.90
11379;DHT22;5744;59.392;16.748;2022-12-17T19:51:43;0.80;99.90
11379;DHT22;5744;59.392;16.748;2022-12-17T19:54:12;0.80;99.90
11379;DHT22;5744;59.392;16.748;2022-12-17T19:56:41;0.80;99.90
11379;DHT22;5744;59.392;16.748;2022-12-17T19:59:10;0.90;99.90
11379;DHT22;5744;59.392;16.748;2022-12-17T20:01:40;0.90;99.90
11379;DHT22;5744;59.392;16.748;2022-12-17T20:04:12;0.90;99.90
11379;DHT22;5744;59.392;16.748;2022-12-17T20:06:41;1.00;99.90
11379;DHT22;5744;59.392;16.748;2022-12-17T20:09:10;1.00;99.90
11379;DHT22;5744;59.392;16.748;2022-12-17T20:11:38;1.00;99.90
11379;DHT22;5744;59.392;16.748;2022-12-17T20:14:10;0.90;99.90
11379;DHT22;5744;59.392;16.748;2022-12-17T20:16:40;1.00;99.90
11379;DHT22;5744;59.392;16.748;2022-12-17T20:19:12;1.00;99.90
11379;DHT22;5744;59.392;16.748;2022-12-17T20:21:41;1.10;99.90
11379;DHT22;5744;59.392;16.748;2022-12-17T20:24:10;1.00;99.90
11379;DHT22;5744;59.392;16.748;2022-12-17T20:26:39;1.10;99.90
11379;DHT22;5744;59.392;16.748;2022-12-17T20:29:08;1.00;99.90
11379;DHT22;5744;59.392;16.748;2022-12-17T20:31:36;1.10;99.90
11379;DHT22;5744;59.392;16.748;2022-12-17T20:34:07;1.10;99.90
11379;DHT22;5744;59.392;16.748;2022-12-17T20:36:38;1.00;99.90
11379;DHT22;5744;59.392;16.748;2022-12-17T20:39:07;1.10;99.90
11379;DHT22;5744;59.392;16.748;2022-12-17T20:41:36;1.10;99.90
11379;DHT22;5744;59.392;16.748;2022-12-17T20:44:05;1.10;99.90
11379;DHT22;5744;59.392;16.748;2022-12-17T20:46:34;1.10;99.90
11379;DHT22;5744;59.392;16.748;2022-12-17T20:49:05;1.10;99.90
11379;DHT22;5744;59.392;16.748;2022-12-17T20:51:34;1.10;99.90
11379;DHT22;5744;59.392;16.748;2022-12-17T20:54:05;1.10;99.90
11379;DHT22;5744;59.392;16.748;2022-12-17T20:56:35;1.10;99.90
11379;DHT22;5744;59.392;16.748;2022-12-17T20:59:04;1.20;99.90
